createdAt,value
2022-11-02T00:02:25.550Z,37.82
2022-11-02T00:04:51.834Z,37.69
2022-11-02T00:07:18.178Z,37.66
2022-11-02T00:09:44.516Z,37.79
2022-11-02T00:12:10.850Z,37.74
2022-11-02T00:14:37.221Z,38.44
2022-11-02T00:17:03.617Z,37.74
2022-11-02T00:19:29.958Z,37.78
2022-11-02T00:21:56.329Z,37.83
2022-11-02T00:24:22.659Z,37.76
2022-11-02T00:26:48.997Z,37.75
2022-11-02T00:29:15.334Z,37.82
2022-11-02T00:31:41.676Z,37.82
2022-11-02T00:34:08.009Z,37.81
2022-11-02T00:36:34.353Z,37.85
2022-11-02T00:39:00.702Z,37.89
2022-11-02T00:41:27.051Z,38.04
2022-11-02T00:43:53.395Z,38.06
2022-11-02T00:46:19.769Z,37.92
2022-11-02T00:48:46.112Z,38.00
2022-11-02T00:51:12.460Z,38.03
2022-11-02T00:53:38.808Z,38.21
2022-11-02T00:56:05.146Z,38.14
2022-11-02T00:58:31.484Z,38.25
2022-11-02T01:00:57.907Z,38.08
2022-11-02T01:03:24.207Z,38.08
2022-11-02T01:05:50.509Z,37.92
2022-11-02T01:08:16.849Z,37.91
2022-11-02T01:10:47.166Z,37.95
2022-11-02T01:13:09.561Z,38.05
2022-11-02T01:15:35.902Z,38.05
2022-11-02T01:18:02.500Z,37.74
2022-11-02T01:20:28.605Z,37.74
2022-11-02T01:22:54.959Z,37.95
2022-11-02T01:25:21.303Z,37.84
2022-11-02T01:27:47.648Z,37.85
2022-11-02T01:30:13.987Z,38.34
2022-11-02T01:32:40.324Z,38.34
2022-11-02T01:35:06.672Z,37.92
2022-11-02T01:37:33.048Z,37.58
2022-11-02T01:39:59.387Z,37.58
2022-11-02T01:42:25.763Z,37.80
2022-11-02T01:44:52.075Z,37.66
2022-11-02T01:47:18.412Z,37.66
2022-11-02T01:49:44.742Z,37.84
2022-11-02T01:52:11.094Z,37.88
2022-11-02T01:54:37.437Z,37.88
2022-11-02T01:57:03.792Z,37.92
2022-11-02T01:59:30.131Z,37.92
2022-11-02T02:01:56.535Z,38.09
2022-11-02T02:04:22.816Z,38.15
2022-11-02T02:06:50.131Z,38.05
2022-11-02T02:09:15.490Z,38.67
2022-11-02T02:11:41.873Z,38.38
2022-11-02T02:14:08.174Z,38.38
2022-11-02T02:16:34.568Z,38.19
2022-11-02T02:19:00.853Z,38.19
2022-11-02T02:21:27.246Z,38.14
2022-11-02T02:23:53.578Z,38.12
2022-11-02T02:26:19.918Z,38.15
2022-11-02T02:28:46.299Z,38.16
2022-11-02T02:31:12.597Z,38.15
2022-11-02T02:33:38.935Z,37.94
2022-11-02T02:36:05.995Z,38.12
2022-11-02T02:38:32.344Z,38.14
2022-11-02T02:40:58.703Z,38.15
2022-11-02T02:43:25.032Z,38.09
2022-11-02T02:45:51.390Z,38.09
2022-11-02T02:48:17.729Z,38.10
2022-11-02T02:50:44.075Z,38.13
2022-11-02T02:53:10.411Z,38.16
2022-11-02T02:55:36.758Z,38.21
2022-11-02T02:58:03.324Z,38.24
2022-11-02T03:00:29.451Z,38.20
2022-11-02T03:02:55.784Z,38.13
2022-11-02T03:05:22.129Z,38.13
2022-11-02T03:07:48.465Z,37.48
2022-11-02T03:10:14.815Z,37.48
2022-11-02T03:12:41.179Z,37.69
2022-11-02T03:15:07.541Z,37.56
2022-11-02T03:17:33.885Z,37.43
2022-11-02T03:20:00.271Z,37.32
2022-11-02T03:22:26.613Z,37.21
2022-11-02T03:24:52.974Z,37.15
2022-11-02T03:27:19.333Z,37.05
2022-11-02T03:29:45.678Z,36.97
2022-11-02T03:32:12.027Z,36.84
2022-11-02T03:34:39.335Z,36.81
2022-11-02T03:37:04.807Z,36.73
2022-11-02T03:39:31.083Z,36.66
2022-11-02T03:41:57.422Z,36.63
2022-11-02T03:44:23.795Z,36.53
2022-11-02T03:46:50.129Z,36.51
2022-11-02T03:49:16.506Z,36.42
2022-11-02T03:51:42.847Z,36.34
2022-11-02T03:54:09.192Z,36.30
2022-11-02T03:56:35.533Z,36.25
2022-11-02T03:59:01.879Z,36.22
2022-11-02T04:01:28.256Z,36.18
2022-11-02T04:03:54.569Z,36.07
2022-11-02T04:06:20.912Z,36.06
2022-11-02T04:08:47.246Z,36.06
2022-11-02T04:11:13.617Z,35.99
2022-11-02T04:13:39.954Z,35.96
2022-11-02T04:16:06.294Z,35.93
2022-11-02T04:18:32.652Z,35.88
2022-11-02T04:20:58.989Z,35.86
2022-11-02T04:23:25.335Z,35.82
2022-11-02T04:25:51.682Z,35.81
2022-11-02T04:28:18.020Z,35.77
2022-11-02T04:30:46.777Z,35.69
2022-11-02T04:33:13.118Z,35.64
2022-11-02T04:35:39.455Z,35.63
2022-11-02T04:38:06.181Z,35.60
2022-11-02T04:40:32.147Z,35.52
2022-11-02T04:42:58.491Z,35.49
2022-11-02T04:45:24.899Z,35.45
2022-11-02T04:47:51.237Z,35.44
2022-11-02T04:50:17.588Z,35.39
2022-11-02T04:52:43.929Z,35.34
2022-11-02T04:55:10.283Z,35.31
2022-11-02T04:57:36.654Z,35.29
2022-11-02T05:00:02.973Z,35.23
2022-11-02T05:02:29.439Z,35.23
2022-11-02T05:04:55.660Z,35.19
2022-11-02T05:07:22.006Z,35.16
2022-11-02T05:09:48.347Z,35.16
2022-11-02T05:12:14.693Z,35.09
2022-11-02T05:14:41.054Z,35.08
2022-11-02T05:17:07.387Z,35.01
2022-11-02T05:19:33.730Z,35.00
2022-11-02T05:22:00.090Z,35.01
2022-11-02T05:24:26.418Z,35.07
2022-11-02T05:26:54.019Z,35.58
2022-11-02T05:29:19.105Z,35.73
2022-11-02T05:31:45.461Z,35.51
2022-11-02T05:34:11.798Z,35.46
2022-11-02T05:36:38.166Z,35.46
2022-11-02T05:39:04.546Z,35.33
2022-11-02T05:41:30.885Z,35.32
2022-11-02T05:43:57.257Z,35.24
2022-11-02T05:46:23.599Z,35.16
2022-11-02T05:48:50.078Z,35.20
2022-11-02T05:51:16.418Z,35.19
2022-11-02T05:53:42.756Z,35.12
2022-11-02T05:56:09.119Z,35.14
2022-11-02T05:58:36.705Z,35.10
2022-11-02T06:01:01.842Z,35.10
2022-11-02T06:03:28.163Z,35.12
2022-11-02T06:05:54.508Z,35.16
2022-11-02T06:08:20.862Z,35.26
2022-11-02T06:10:47.228Z,35.43
2022-11-02T06:13:13.590Z,35.69
2022-11-02T06:15:39.934Z,36.24
2022-11-02T06:18:06.287Z,36.30
2022-11-02T06:20:32.627Z,36.18
2022-11-02T06:22:58.982Z,36.04
2022-11-02T06:25:25.319Z,35.93
2022-11-02T06:27:51.699Z,35.87
2022-11-02T06:30:18.042Z,35.78
2022-11-02T06:32:44.402Z,35.75
2022-11-02T06:35:10.761Z,35.69
2022-11-02T06:37:37.110Z,35.67
2022-11-02T06:40:03.448Z,35.59
2022-11-02T06:42:29.825Z,35.54
2022-11-02T06:44:56.164Z,35.60
2022-11-02T06:47:22.548Z,35.60
2022-11-02T06:49:48.882Z,35.63
2022-11-02T06:52:15.226Z,35.60
2022-11-02T06:54:41.572Z,35.60
2022-11-02T06:57:07.908Z,35.53
2022-11-02T06:59:34.250Z,35.59
2022-11-02T07:02:00.709Z,35.83
2022-11-02T07:04:26.949Z,36.15
2022-11-02T07:06:53.298Z,36.40
2022-11-02T07:09:19.644Z,36.38
2022-11-02T07:11:45.993Z,36.43
2022-11-02T07:14:12.342Z,36.38
2022-11-02T07:16:38.693Z,36.45
2022-11-02T07:19:05.035Z,36.46
2022-11-02T07:21:31.388Z,36.43
2022-11-02T07:23:57.836Z,36.61
2022-11-02T07:26:24.173Z,36.84
2022-11-02T07:28:53.818Z,36.84
2022-11-02T07:31:16.866Z,36.61
2022-11-02T07:33:43.212Z,36.61
2022-11-02T07:36:09.568Z,36.55
2022-11-02T07:38:35.902Z,36.50
2022-11-02T07:41:02.278Z,36.58
2022-11-02T07:43:28.622Z,36.84
2022-11-02T07:45:54.985Z,36.74
2022-11-02T07:48:21.336Z,36.69
2022-11-02T07:50:47.688Z,36.65
2022-11-02T07:53:14.025Z,36.85
2022-11-02T07:55:40.384Z,36.90
2022-11-02T07:58:06.788Z,37.09
2022-11-02T08:00:33.139Z,36.98
2022-11-02T08:02:59.641Z,36.95
2022-11-02T08:05:25.884Z,36.99
2022-11-02T08:07:52.244Z,37.13
2022-11-02T08:10:18.583Z,37.24
2022-11-02T08:12:44.931Z,37.00
2022-11-02T08:15:11.337Z,36.97
2022-11-02T08:17:37.683Z,36.97
2022-11-02T08:20:04.071Z,37.35
2022-11-02T08:22:30.425Z,37.41
2022-11-02T08:24:56.775Z,37.26
2022-11-02T08:27:23.166Z,37.18
2022-11-02T08:29:49.589Z,37.05
2022-11-02T08:32:15.926Z,37.05
2022-11-02T08:34:42.284Z,37.22
2022-11-02T08:37:08.635Z,37.20
2022-11-02T08:39:34.991Z,37.12
2022-11-02T08:42:01.354Z,37.10
2022-11-02T08:44:27.718Z,37.29
2022-11-02T08:49:20.443Z,37.73
2022-11-02T08:51:46.800Z,37.64
2022-11-02T08:54:13.155Z,37.68
2022-11-02T08:56:39.518Z,37.68
2022-11-02T08:59:05.880Z,37.40
2022-11-02T09:01:32.283Z,37.35
2022-11-02T09:03:58.600Z,37.47
2022-11-02T09:06:24.953Z,37.70
2022-11-02T09:08:53.786Z,37.87
2022-11-02T09:11:17.679Z,37.78
2022-11-02T09:13:44.107Z,38.28
2022-11-02T09:16:10.398Z,38.28
2022-11-02T09:18:37.669Z,37.62
2022-11-02T09:21:04.031Z,37.53
2022-11-02T09:23:30.373Z,37.67
2022-11-02T09:25:56.761Z,37.57
2022-11-02T09:28:23.101Z,37.58
2022-11-02T09:30:49.439Z,37.57
2022-11-02T09:33:15.785Z,37.64
2022-11-02T09:35:42.141Z,37.76
2022-11-02T09:38:08.480Z,37.63
2022-11-02T09:40:34.828Z,37.82
2022-11-02T09:43:01.286Z,37.61
2022-11-02T09:45:27.556Z,37.48
2022-11-02T09:48:24.914Z,37.82
2022-11-02T09:50:20.280Z,37.87
2022-11-02T09:52:46.621Z,37.77
2022-11-02T09:55:13.917Z,37.64
2022-11-02T09:57:39.333Z,37.58
2022-11-02T10:00:05.671Z,37.84
2022-11-02T10:02:32.023Z,37.84
2022-11-02T10:04:58.343Z,37.50
2022-11-02T10:07:24.697Z,37.55
2022-11-02T10:09:51.037Z,37.42
2022-11-02T10:12:17.383Z,37.50
2022-11-02T10:14:43.734Z,37.59
2022-11-02T10:17:10.102Z,37.53
2022-11-02T10:19:36.444Z,37.93
2022-11-02T10:22:02.820Z,37.93
2022-11-02T10:24:29.183Z,37.51
2022-11-02T10:26:55.555Z,37.29
2022-11-02T10:29:21.885Z,37.29
2022-11-02T10:31:48.243Z,37.41
2022-11-02T10:34:14.575Z,37.25
2022-11-02T10:36:40.915Z,36.88
2022-11-02T10:39:07.313Z,36.88
2022-11-02T10:41:33.654Z,37.30
2022-11-02T10:44:00.029Z,37.22
2022-11-02T10:46:26.368Z,37.17
2022-11-02T10:48:52.715Z,37.35
2022-11-02T10:51:19.055Z,37.54
2022-11-02T10:53:45.683Z,37.54
2022-11-02T10:56:11.750Z,37.50
2022-11-02T10:58:38.089Z,37.42
2022-11-02T11:01:04.493Z,37.44
2022-11-02T11:03:30.772Z,37.33
2022-11-02T11:05:57.113Z,37.19
2022-11-02T11:08:23.461Z,37.19
2022-11-02T11:10:49.811Z,37.10
2022-11-02T11:20:35.212Z,37.39
2022-11-02T11:23:01.777Z,37.17
2022-11-02T11:25:28.509Z,37.38
2022-11-02T11:27:54.230Z,37.33
2022-11-02T11:30:33.553Z,37.12
2022-11-02T11:32:46.957Z,37.38
2022-11-02T11:35:13.311Z,37.59
2022-11-02T11:37:39.656Z,37.59
2022-11-02T11:40:06.019Z,37.54
2022-11-02T11:42:32.357Z,37.53
2022-11-02T11:44:58.815Z,37.62
2022-11-02T11:47:25.207Z,37.64
2022-11-02T11:52:18.135Z,37.47
2022-11-02T11:54:44.485Z,37.55
2022-11-02T11:57:10.873Z,37.40
2022-11-02T11:59:37.212Z,37.42
2022-11-02T12:02:04.228Z,37.37
2022-11-02T12:04:29.903Z,37.37
2022-11-02T12:06:56.243Z,37.01
2022-11-02T12:09:22.590Z,37.05
2022-11-02T12:11:48.926Z,37.05
2022-11-02T12:14:15.328Z,37.42
2022-11-02T12:16:41.655Z,37.55
2022-11-02T12:19:08.004Z,37.49
2022-11-02T12:21:34.335Z,37.48
2022-11-02T12:24:00.677Z,37.52
2022-11-02T12:26:27.008Z,37.43
2022-11-02T12:28:53.450Z,37.36
2022-11-02T12:31:19.789Z,37.44
2022-11-02T12:33:46.205Z,37.55
2022-11-02T12:36:12.545Z,37.58
2022-11-02T12:38:38.898Z,37.21
2022-11-02T12:41:05.237Z,37.63
2022-11-02T12:43:33.249Z,37.63
2022-11-02T12:45:57.941Z,37.58
2022-11-02T12:48:24.283Z,37.58
2022-11-02T12:50:50.625Z,37.39
2022-11-02T12:53:17.025Z,37.19
2022-11-02T12:55:43.375Z,37.34
2022-11-02T12:58:09.724Z,37.46
2022-11-02T13:00:36.140Z,37.12
2022-11-02T13:03:02.584Z,37.12
2022-11-02T13:05:28.857Z,37.21
2022-11-02T13:07:55.180Z,37.20
2022-11-02T13:10:21.529Z,37.17
2022-11-02T13:12:47.878Z,37.12
2022-11-02T13:15:14.217Z,37.12
2022-11-02T13:17:40.614Z,36.86
2022-11-02T13:20:06.972Z,37.15
2022-11-02T13:22:33.317Z,37.05
2022-11-02T13:24:59.655Z,37.00
2022-11-02T13:27:40.821Z,37.00
2022-11-02T13:29:52.336Z,36.97
2022-11-02T13:32:18.680Z,37.08
2022-11-02T13:34:45.050Z,36.71
2022-11-02T13:37:11.394Z,36.65
2022-11-02T13:39:37.739Z,36.57
2022-11-02T13:42:04.088Z,36.45
2022-11-02T13:44:30.422Z,36.23
2022-11-02T13:46:58.692Z,36.09
2022-11-02T13:49:23.119Z,35.83
2022-11-02T13:51:49.462Z,35.94
2022-11-02T13:54:15.797Z,35.92
2022-11-02T13:56:42.141Z,35.55
2022-11-02T13:59:08.489Z,35.55
2022-11-02T14:01:34.897Z,35.62
2022-11-02T14:04:02.428Z,35.53
2022-11-02T14:06:27.547Z,35.53
2022-11-02T14:08:53.886Z,35.57
2022-11-02T14:11:20.229Z,35.57
2022-11-02T14:13:46.561Z,35.99
2022-11-02T14:16:12.967Z,35.99
2022-11-02T14:18:39.313Z,36.27
2022-11-02T14:21:05.672Z,36.57
2022-11-02T14:23:32.020Z,36.71
2022-11-02T14:25:59.317Z,36.72
2022-11-02T14:28:24.724Z,36.63
2022-11-02T14:30:51.062Z,36.60
2022-11-02T14:33:17.414Z,36.74
2022-11-02T14:35:43.760Z,36.98
2022-11-02T14:38:10.093Z,37.16
2022-11-02T14:40:36.530Z,37.22
2022-11-02T14:43:03.148Z,37.22
2022-11-02T14:45:29.239Z,37.07
2022-11-02T14:47:55.569Z,36.85
2022-11-02T14:50:21.914Z,36.87
2022-11-02T14:52:48.254Z,36.62
2022-11-02T14:55:14.599Z,36.55
2022-11-02T14:57:40.942Z,36.47
2022-11-02T15:00:07.362Z,36.49
2022-11-02T15:02:37.264Z,36.54
2022-11-02T15:05:00.015Z,36.54
2022-11-02T15:07:26.337Z,36.21
2022-11-02T15:09:52.684Z,35.92
2022-11-02T15:12:19.039Z,35.92
2022-11-02T15:14:45.414Z,36.08
2022-11-02T15:17:11.760Z,36.05
2022-11-02T15:19:38.114Z,35.99
2022-11-02T15:22:04.457Z,35.99
2022-11-02T15:27:16.076Z,36.00
2022-11-02T15:29:42.435Z,36.00
2022-11-02T15:32:08.780Z,35.92
2022-11-02T15:34:35.110Z,35.51
2022-11-02T15:37:01.454Z,35.51
2022-11-02T15:39:27.789Z,35.64
2022-11-02T15:41:54.151Z,35.28
2022-11-02T15:44:20.480Z,35.43
2022-11-02T15:46:46.822Z,35.60
2022-11-02T15:49:13.197Z,35.54
2022-11-02T15:51:39.553Z,35.56
2022-11-02T15:54:05.985Z,35.72
2022-11-02T15:56:32.241Z,35.96
2022-11-02T15:58:58.588Z,36.36
2022-11-02T16:01:25.026Z,36.36
2022-11-02T16:03:57.100Z,36.46
2022-11-02T16:06:17.620Z,36.31
2022-11-02T16:08:43.962Z,36.50
2022-11-02T16:11:10.312Z,36.44
2022-11-02T16:13:48.704Z,36.43
2022-11-02T16:16:03.933Z,36.26
2022-11-02T16:18:29.374Z,36.26
2022-11-02T16:20:55.671Z,36.12
2022-11-02T16:23:22.013Z,36.39
2022-11-02T16:25:48.422Z,36.02
2022-11-02T16:28:14.753Z,35.95
2022-11-02T16:30:41.089Z,35.92
2022-11-02T16:33:07.427Z,35.82
2022-11-02T16:35:33.767Z,35.78
2022-11-02T16:38:00.107Z,35.81
2022-11-02T16:40:26.455Z,35.73
2022-11-02T16:42:52.794Z,35.61
2022-11-02T16:45:19.131Z,35.65
2022-11-02T16:47:45.464Z,35.61
2022-11-02T16:50:11.814Z,35.79
2022-11-02T16:52:38.147Z,35.62
2022-11-02T16:55:04.491Z,35.63
2022-11-02T16:57:31.622Z,35.82
2022-11-02T16:59:57.957Z,35.82
2022-11-02T17:02:24.341Z,35.93
2022-11-02T17:07:16.979Z,35.97
2022-11-02T17:09:43.318Z,35.54
2022-11-02T17:12:10.888Z,35.75
2022-11-02T17:14:35.998Z,35.80
2022-11-02T17:17:02.387Z,35.61
2022-11-02T17:19:28.773Z,35.51
2022-11-02T17:21:55.110Z,35.56
2022-11-02T17:24:21.453Z,35.65
2022-11-02T17:26:47.810Z,35.70
2022-11-02T17:29:14.163Z,35.63
2022-11-02T17:31:40.491Z,35.67
2022-11-02T17:34:06.832Z,35.65
2022-11-02T17:36:33.169Z,35.48
2022-11-02T17:38:59.530Z,35.68
2022-11-02T17:41:25.859Z,35.75
2022-11-02T17:43:52.220Z,35.69
2022-11-02T17:46:18.552Z,35.75
2022-11-02T17:48:44.898Z,35.80
2022-11-02T17:51:11.227Z,35.76
2022-11-02T17:53:37.636Z,35.64
2022-11-02T17:56:03.965Z,35.65
2022-11-02T17:58:30.314Z,35.55
2022-11-02T18:00:56.739Z,35.47
2022-11-02T18:03:25.541Z,35.50
2022-11-02T18:05:50.770Z,35.39
2022-11-02T18:08:15.702Z,35.46
2022-11-02T18:10:42.030Z,35.51
2022-11-02T18:13:08.611Z,35.58
2022-11-02T18:15:34.753Z,35.77
2022-11-02T18:18:01.089Z,35.79
2022-11-02T18:20:27.420Z,36.18
2022-11-02T18:22:53.767Z,36.12
2022-11-02T18:27:46.448Z,35.90
2022-11-02T18:30:12.782Z,35.89
2022-11-02T18:32:39.168Z,35.86
2022-11-02T18:35:05.545Z,35.76
2022-11-02T18:37:31.875Z,35.83
2022-11-02T18:39:58.206Z,35.72
2022-11-02T18:42:24.550Z,35.74
2022-11-02T18:44:50.880Z,35.73
2022-11-02T18:47:17.217Z,35.56
2022-11-02T18:49:43.651Z,35.54
2022-11-02T18:52:09.990Z,35.46
2022-11-02T18:54:36.319Z,35.41
2022-11-02T18:57:02.661Z,35.39
2022-11-02T18:59:29.004Z,35.47
2022-11-02T19:01:55.515Z,35.33
2022-11-02T19:04:21.735Z,35.24
2022-11-02T19:06:48.071Z,35.16
2022-11-02T19:09:14.406Z,35.53
2022-11-02T19:11:40.749Z,35.73
2022-11-02T19:14:07.112Z,35.73
2022-11-02T19:16:33.448Z,35.54
2022-11-02T19:18:59.790Z,35.64
2022-11-02T19:21:26.130Z,35.66
2022-11-02T19:23:52.469Z,35.67
2022-11-02T19:26:18.845Z,35.67
2022-11-02T19:28:45.145Z,35.81
2022-11-02T19:31:11.487Z,35.79
2022-11-02T19:33:37.818Z,35.82
2022-11-02T19:36:04.161Z,35.87
2022-11-02T19:38:30.491Z,36.33
2022-11-02T19:40:56.834Z,36.33
2022-11-02T19:43:23.170Z,36.03
2022-11-02T19:45:49.517Z,36.37
2022-11-02T19:48:15.861Z,36.37
2022-11-02T19:50:42.205Z,36.09
2022-11-02T19:53:08.545Z,36.17
2022-11-02T19:55:34.885Z,36.18
2022-11-02T19:58:01.260Z,36.48
2022-11-02T20:00:27.596Z,36.20
2022-11-02T20:02:53.998Z,36.24
2022-11-02T20:05:20.275Z,36.24
2022-11-02T20:07:46.633Z,36.37
2022-11-02T20:10:12.972Z,36.31
2022-11-02T20:12:39.348Z,36.42
2022-11-02T20:15:05.694Z,36.32
2022-11-02T20:17:46.540Z,36.61
2022-11-02T20:19:58.376Z,36.61
2022-11-02T20:22:24.742Z,36.42
2022-11-02T20:24:51.087Z,36.45
2022-11-02T20:27:17.416Z,36.47
2022-11-02T20:29:43.761Z,36.90
2022-11-02T20:32:10.106Z,35.95
2022-11-02T20:34:36.447Z,35.95
2022-11-02T20:37:02.838Z,36.39
2022-11-02T20:39:29.175Z,36.35
2022-11-02T20:41:55.509Z,36.49
2022-11-02T20:44:21.866Z,36.48
2022-11-02T20:46:52.696Z,36.59
2022-11-02T20:49:21.889Z,36.60
2022-11-02T20:51:40.916Z,36.65
2022-11-02T20:54:07.302Z,36.67
2022-11-02T20:56:33.643Z,36.64
2022-11-02T20:58:59.989Z,36.99
2022-11-02T21:01:26.391Z,36.67
2022-11-02T21:03:52.697Z,36.67
2022-11-02T21:06:19.022Z,36.76
2022-11-02T21:08:45.366Z,36.65
2022-11-02T21:11:11.701Z,36.65
2022-11-02T21:13:38.040Z,36.66
2022-11-02T21:16:04.376Z,36.69
2022-11-02T21:18:30.723Z,36.70
2022-11-02T21:20:57.058Z,36.72
2022-11-02T21:23:23.395Z,36.77
2022-11-02T21:25:49.745Z,36.64
2022-11-02T21:28:16.084Z,36.88
2022-11-02T21:30:42.467Z,37.39
2022-11-02T21:33:09.197Z,37.39
2022-11-02T21:35:35.165Z,36.61
2022-11-02T21:38:05.273Z,37.14
2022-11-02T21:40:27.859Z,37.14
2022-11-02T21:42:54.197Z,37.11
2022-11-02T21:45:25.221Z,37.16
2022-11-02T21:47:46.877Z,36.98
2022-11-02T21:50:13.219Z,36.96
2022-11-02T21:52:42.490Z,37.16
2022-11-02T21:55:07.152Z,37.26
2022-11-02T21:57:32.258Z,37.15
2022-11-02T21:59:58.591Z,37.36
2022-11-02T22:02:25.051Z,37.36
2022-11-02T22:04:51.276Z,37.01
2022-11-02T22:07:17.622Z,37.41
2022-11-02T22:09:43.967Z,37.41
2022-11-02T22:12:10.312Z,37.07
2022-11-02T22:14:36.678Z,37.22
2022-11-02T22:17:11.345Z,37.14
2022-11-02T22:19:29.349Z,37.14
2022-11-02T22:21:55.691Z,37.14
2022-11-02T22:24:22.029Z,37.52
2022-11-02T22:26:48.376Z,37.52
2022-11-02T22:29:14.716Z,37.66
2022-11-02T22:31:41.059Z,37.66
2022-11-02T22:34:07.403Z,37.22
2022-11-02T22:36:33.751Z,37.23
2022-11-02T22:39:00.104Z,37.23
2022-11-02T22:41:26.421Z,37.29
2022-11-02T22:43:52.816Z,37.17
2022-11-02T22:46:19.148Z,37.16
2022-11-02T22:48:45.473Z,37.27
2022-11-02T22:51:11.817Z,37.24
2022-11-02T22:53:38.187Z,37.19
2022-11-02T22:56:04.531Z,37.18
2022-11-02T22:58:30.884Z,37.18
2022-11-02T23:00:57.306Z,37.23
2022-11-02T23:03:23.571Z,37.22
2022-11-02T23:05:49.920Z,37.22
2022-11-02T23:08:16.316Z,37.45
2022-11-02T23:10:42.597Z,37.45
2022-11-02T23:13:09.267Z,37.21
2022-11-02T23:15:35.280Z,37.21
2022-11-02T23:18:01.621Z,37.29
2022-11-02T23:20:27.964Z,37.42
2022-11-02T23:22:54.304Z,37.33
2022-11-02T23:25:20.658Z,37.37
2022-11-02T23:27:46.991Z,37.39
2022-11-02T23:30:13.332Z,37.42
2022-11-02T23:32:39.664Z,37.45
2022-11-02T23:35:06.014Z,37.46
2022-11-02T23:37:32.348Z,37.55
2022-11-02T23:39:58.692Z,37.55
2022-11-02T23:42:25.025Z,37.49
2022-11-02T23:44:51.366Z,37.85
2022-11-02T23:47:17.704Z,37.64
2022-11-02T23:49:44.048Z,37.37
2022-11-02T23:52:10.380Z,37.58
2022-11-02T23:54:36.718Z,37.28
2022-11-02T23:57:03.055Z,37.28
2022-11-02T23:59:29.406Z,37.68
